Time;durP1;ratioP1;P1;durP2;ratioP2;P2;SDS_P1;SDS_P2;PMS_P1;PMS_P2;Temp;Humidity;BMP_temperature;BMP_pressure;BME280_temperature;BME280_humidity;BME280_pressure;Samples;Min_cycle;Max_cycle;Signal;HPM_P1;HPM_P2
2022/11/02 00:01:45;;;;;;;17.23;4.15;;;11.10;99.90;;;10.44;100.00;101729.13;4105379;29;20031;-79
2022/11/02 00:03:47;;;;;;;23.70;4.07;;;11.20;99.90;;;10.27;100.00;101711.28;4102977;29;20494;-79
2022/11/02 00:05:48;;;;;;;13.45;3.78;;;11.30;99.90;;;10.37;100.00;101738.53;4105182;29;20031;-79
2022/11/02 00:07:53;;;;;;;20.38;3.80;;;11.30;99.90;;;10.30;100.00;101730.34;4105379;29;20035;-79
2022/11/02 00:09:54;;;;;;;21.20;4.15;;;11.20;99.90;;;10.26;100.00;101725.44;4103707;29;20106;-79
2022/11/02 00:11:55;;;;;;;22.70;4.65;;;11.10;99.90;;;10.18;100.00;101736.63;4096937;29;20058;-79
2022/11/02 00:13:56;;;;;;;15.60;3.08;;;11.00;99.90;;;10.10;100.00;101735.56;4104067;29;20026;-79
2022/11/02 00:16:00;;;;;;;22.55;4.63;;;10.90;99.90;;;10.01;100.00;101743.28;4105147;29;20058;-79
2022/11/02 00:18:09;;;;;;;;;;;10.80;99.90;;;9.82;100.00;101729.13;4088200;29;20067;-80
2022/11/02 00:20:13;;;;;;;25.65;4.22;;;10.70;99.90;;;9.85;100.00;101745.53;4104050;29;19921;-78
2022/11/02 00:22:14;;;;;;;;;;;10.60;99.90;;;9.78;100.00;101738.25;4104058;29;20035;-79
2022/11/02 00:24:15;;;;;;;17.50;4.30;;;10.60;99.90;;;9.73;100.00;101738.63;4087561;29;19958;-79
2022/11/02 00:26:17;;;;;;;23.45;4.43;;;10.60;99.90;;;9.63;100.00;101727.16;4085737;29;20054;-79
2022/11/02 00:28:18;;;;;;;21.98;4.25;;;10.50;99.90;;;9.69;100.00;101739.00;4087627;29;20051;-79
2022/11/02 00:30:19;;;;;;;21.60;4.53;;;10.50;99.90;;;9.68;100.00;101740.78;4103252;28;20106;-79
2022/11/02 00:32:20;;;;;;;24.20;4.35;;;10.50;99.90;;;9.68;100.00;101737.31;4119623;28;20022;-79
2022/11/02 00:34:21;;;;;;;28.83;5.53;;;10.40;99.90;;;9.65;100.00;101732.28;4119570;28;20423;-79
2022/11/02 00:36:23;;;;;;;23.95;4.38;;;10.40;99.90;;;9.70;100.00;101744.16;4095930;29;20052;-79
2022/11/02 00:38:24;;;;;;;24.80;4.75;;;10.50;99.90;;;9.69;100.00;101744.25;4103596;29;20112;-79
2022/11/02 00:40:25;;;;;;;20.67;6.03;;;10.40;99.90;;;9.66;100.00;101741.88;4119278;28;20074;-79
2022/11/02 00:42:27;;;;;;;21.42;3.75;;;10.40;99.90;;;9.67;100.00;101736.50;4104930;29;20098;-79
2022/11/02 00:44:27;;;;;;;23.35;3.88;;;10.50;99.90;;;9.62;100.00;101740.44;4119527;28;20021;-79
2022/11/02 00:46:28;;;;;;;22.52;4.68;;;10.40;99.90;;;9.59;100.00;101738.09;4119603;28;20450;-78
2022/11/02 00:48:29;;;;;;;24.17;4.28;;;10.40;99.90;;;9.59;100.00;101746.81;4102304;29;20106;-79
2022/11/02 00:50:31;;;;;;;15.60;3.60;;;10.40;99.90;;;9.61;100.00;101751.97;4111145;28;20046;-79
2022/11/02 00:52:32;;;;;;;22.05;4.53;;;10.40;99.90;;;9.54;100.00;101749.00;4104476;29;20031;-79
2022/11/02 00:54:32;;;;;;;21.40;4.05;;;10.30;99.90;;;9.52;100.00;101748.28;4103532;29;20115;-79
2022/11/02 00:56:33;;;;;;;15.45;3.30;;;10.30;99.90;;;9.47;100.00;101742.53;4104504;29;20035;-79
2022/11/02 00:58:34;;;;;;;20.08;3.50;;;10.30;99.90;;;9.42;100.00;101747.34;4104655;29;20027;-79
2022/11/02 01:00:35;;;;;;;18.52;4.32;;;10.20;99.90;;;9.37;100.00;101750.38;4104392;29;20031;-79
2022/11/02 01:02:37;;;;;;;15.55;3.00;;;10.20;99.90;;;9.33;100.00;101745.47;4103290;29;20035;-79
2022/11/02 01:04:38;;;;;;;22.55;3.92;;;10.10;99.90;;;9.30;100.00;101743.91;4103101;29;20058;-79
2022/11/02 01:06:40;;;;;;;19.33;3.83;;;10.10;99.90;;;9.32;100.00;101751.66;4104346;29;20027;-79
2022/11/02 01:08:41;;;;;;;28.00;5.63;;;10.10;99.90;;;9.28;100.00;101748.47;4103250;29;20038;-79
2022/11/02 01:10:43;;;;;;;21.17;4.70;;;10.10;99.90;;;9.34;100.00;101753.25;4103303;29;20034;-79
2022/11/02 01:12:44;;;;;;;24.88;3.50;;;10.20;99.90;;;9.42;100.00;101763.16;4103098;29;20110;-79
2022/11/02 01:14:48;;;;;;;31.38;5.00;;;10.20;99.90;;;9.44;100.00;101766.47;4104493;29;20061;-79
2022/11/02 01:16:49;;;;;;;15.65;3.38;;;10.30;99.90;;;9.42;100.00;101765.78;4103282;29;20023;-79
2022/11/02 01:18:52;;;;;;;21.88;4.45;;;10.30;99.90;;;9.43;100.00;101756.94;4104328;29;20027;-79
2022/11/02 01:20:57;;;;;;;21.02;4.32;;;10.30;99.90;;;9.50;100.00;101762.53;4102718;29;20462;-79
2022/11/02 01:22:58;;;;;;;19.77;3.72;;;10.30;99.90;;;9.53;100.00;101771.00;4102881;29;20031;-79
2022/11/02 01:24:59;;;;;;;20.10;3.38;;;10.30;99.90;;;9.59;100.00;101770.50;4104244;29;20106;-78
2022/11/02 01:27:00;;;;;;;12.77;3.45;;;10.40;99.90;;;9.62;100.00;101772.91;4103025;29;20033;-79
2022/11/02 01:29:01;;;;;;;18.90;4.80;;;10.40;99.90;;;9.66;100.00;101776.97;4103520;28;20047;-79
2022/11/02 01:31:02;;;;;;;16.13;3.53;;;10.50;99.90;;;9.64;100.00;101768.38;4104135;29;20086;-79
2022/11/02 01:33:06;;;;;;;18.83;3.60;;;10.50;99.90;;;9.68;100.00;101777.66;4086972;29;20036;-79
2022/11/02 01:35:09;;;;;;;19.23;4.43;;;10.50;99.90;;;9.74;100.00;101777.16;4104094;29;20030;-80
2022/11/02 01:37:10;;;;;;;25.05;5.07;;;10.50;99.90;;;9.77;100.00;101771.66;4086802;29;20485;-79
2022/11/02 01:39:11;;;;;;;21.25;4.25;;;10.60;99.90;;;9.71;100.00;101769.50;4094043;29;20035;-79
2022/11/02 01:41:12;;;;;;;22.73;3.40;;;10.60;99.90;;;9.68;100.00;101766.28;4102930;29;20031;-79
2022/11/02 01:43:26;;;;;;;19.75;3.95;;;10.50;99.90;;;9.61;100.00;101765.97;4103032;29;20623;-79
2022/11/02 01:45:27;;;;;;;18.95;3.65;;;10.50;99.90;;;9.58;100.00;101774.13;4102481;29;20118;-79
2022/11/02 01:47:36;;;;;;;23.67;4.97;;;10.40;99.90;;;9.57;100.00;101771.59;4102977;29;20102;-79
2022/11/02 01:49:42;;;;;;;25.90;3.55;;;10.40;99.90;;;9.46;100.00;101761.94;4104155;29;20050;-79
2022/11/02 01:51:54;;;;;;;15.43;2.95;;;10.30;99.90;;;9.48;100.00;101774.97;4102500;29;20028;-79
2022/11/02 01:54:03;;;;;;;20.70;3.90;;;10.30;99.90;;;9.46;100.00;101772.50;4102934;29;20081;-79
2022/11/02 01:56:06;;;;;;;19.85;3.45;;;10.30;99.90;;;9.40;100.00;101765.06;4102854;29;20071;-79
2022/11/02 01:58:11;;;;;;;19.50;3.75;;;10.20;99.90;;;9.40;100.00;101771.19;4102619;29;20031;-79
2022/11/02 02:00:15;;;;;;;24.27;4.15;;;10.20;99.90;;;9.43;100.00;101780.63;4102786;29;20031;-79
2022/11/02 02:02:21;;;;;;;19.83;4.30;;;10.20;99.90;;;9.37;100.00;101770.59;4086750;29;20034;-78
2022/11/02 02:04:23;;;;;;;23.92;3.83;;;10.20;99.90;;;9.32;100.00;101768.31;4103887;29;20514;-79
2022/11/02 02:06:25;;;;;;;13.43;3.38;;;10.20;99.90;;;9.33;100.00;101771.78;4102125;29;20086;-79
2022/11/02 02:08:27;;;;;;;21.02;4.03;;;10.10;99.90;;;9.32;100.00;101772.72;4103938;29;20030;-79
2022/11/02 02:10:28;;;;;;;17.55;4.43;;;10.10;99.90;;;9.29;100.00;101779.09;4104019;29;20089;-79
2022/11/02 02:12:31;;;;;;;18.02;3.60;;;10.10;99.90;;;9.34;100.00;101776.09;4102699;29;20023;-79
2022/11/02 02:14:34;;;;;;;14.85;4.18;;;10.10;99.90;;;9.31;100.00;101771.09;4102582;29;20122;-78
2022/11/02 02:17:02;;;;;;;21.42;3.70;;;10.20;99.90;;;9.32;100.00;101775.38;4102848;29;20451;-79
2022/11/02 02:19:26;;;;;;;23.67;4.20;;;10.20;99.90;;;9.29;100.00;101772.97;4102701;29;20051;-79
2022/11/02 02:21:51;;;;;;;23.10;4.13;;;10.20;99.90;;;9.30;100.00;101777.28;4102301;29;20031;-79
2022/11/02 02:24:26;;;;;;;22.70;4.22;;;10.10;99.90;;;9.26;100.00;101776.69;4103601;29;20486;-79
2022/11/02 02:26:33;;;;;;;;;;;10.20;99.90;;;9.25;100.00;101782.94;4102943;29;20087;-79
2022/11/02 02:28:56;;;;;;;15.80;3.70;;;10.10;99.90;;;9.23;100.00;101776.94;4102274;28;19932;-78
2022/11/02 02:31:21;;;;;;;16.70;3.55;;;10.10;99.90;;;9.26;100.00;101789.03;4102601;29;20051;-79
2022/11/02 02:33:45;;;;;;;23.77;3.17;;;10.10;99.90;;;9.27;100.00;101780.16;4103881;29;20073;-79
2022/11/02 02:35:55;;;;;;;25.17;3.70;;;10.10;99.90;;;9.30;100.00;101782.56;4102313;29;20076;-79
2022/11/02 02:38:01;;;;;;;28.95;3.65;;;10.20;99.90;;;9.33;100.00;101774.41;4102418;29;20493;-79
2022/11/02 02:40:21;;;;;;;23.48;3.38;;;10.20;99.90;;;9.34;100.00;101768.19;4118486;28;20521;-79
2022/11/02 02:42:26;;;;;;;13.43;3.33;;;10.30;99.90;;;9.34;100.00;101770.84;4114338;28;20406;-77
2022/11/02 02:44:35;;;;;;;13.82;2.85;;;10.20;99.90;;;9.36;100.00;101775.00;4106278;29;20051;-79
2022/11/02 02:46:52;;;;;;;15.43;3.35;;;10.20;99.90;;;9.33;100.00;101785.78;4121168;28;20033;-79
2022/11/02 02:48:56;;;;;;;17.20;3.05;;;10.20;99.90;;;9.29;100.00;101776.44;4120893;28;20030;-79
2022/11/02 02:51:06;;;;;;;13.20;2.72;;;10.10;99.90;;;9.25;100.00;101777.69;4121358;28;20031;-79
2022/11/02 02:53:08;;;;;;;18.73;3.60;;;10.10;99.90;;;9.14;100.00;101761.88;4120708;28;20411;-78
2022/11/02 02:55:20;;;;;;;14.52;3.65;;;10.10;99.90;;;9.22;100.00;101775.28;4121267;28;20041;-78
2022/11/02 02:57:23;;;;;;;25.35;3.85;;;10.10;99.90;;;9.26;100.00;101775.84;4121330;28;20035;-79
2022/11/02 02:59:34;;;;;;;15.82;3.65;;;10.10;99.90;;;9.19;100.00;101777.31;4121403;28;20045;-79
2022/11/02 03:01:41;;;;;;;15.23;2.85;;;10.10;99.90;;;9.16;100.00;101790.72;4120819;28;20581;-79
2022/11/02 03:03:43;;;;;;;12.85;2.72;;;10.00;99.90;;;9.10;100.00;101786.78;4104823;29;20031;-79
2022/11/02 03:06:26;;;;;;;12.05;3.55;;;9.90;99.90;;;9.03;100.00;101787.38;4120942;28;20027;-79
2022/11/02 03:08:27;;;;;;;16.20;3.35;;;9.90;99.90;;;8.94;100.00;101772.31;4115168;28;20173;-79
2022/11/02 03:11:13;;;;;;;20.63;3.35;;;9.80;99.90;;;8.93;100.00;101781.19;4120676;28;20029;-79
2022/11/02 03:13:47;;;;;;;11.90;2.70;;;9.70;99.90;;;8.87;100.00;101787.72;4099824;29;20035;-79
2022/11/02 03:16:01;;;;;;;15.18;3.03;;;9.70;99.90;;;8.83;100.00;101786.31;4106095;29;20403;-79
2022/11/02 03:18:07;;;;;;;18.02;3.67;;;9.60;99.90;;;8.82;100.00;101795.16;4105058;29;20037;-79
2022/11/02 03:20:37;;;;;;;13.57;2.33;;;9.60;99.90;;;8.76;100.00;101785.09;4106174;29;20054;-79
2022/11/02 03:23:22;;;;;;;16.77;3.13;;;9.60;99.90;;;8.79;100.00;101796.22;4104852;29;20034;-79
2022/11/02 03:25:31;;;;;;;30.65;4.85;;;9.60;99.90;;;8.76;100.00;101793.84;4105005;29;20376;-78
2022/11/02 03:28:00;;;;;;;20.35;4.50;;;9.60;99.90;;;8.78;100.00;101783.22;4104740;29;20557;-79
2022/11/02 03:30:10;;;;;;;19.08;2.83;;;9.60;99.90;;;8.78;100.00;101784.03;4104707;28;20051;-79
2022/11/02 03:32:35;;;;;;;10.57;2.88;;;9.60;99.90;;;8.77;100.00;101786.78;4088581;29;20043;-79
2022/11/02 03:34:45;;;;;;;17.00;3.17;;;9.60;99.90;;;8.73;100.00;101786.19;4089795;29;20541;-79
2022/11/02 03:36:59;;;;;;;10.32;2.58;;;9.60;99.90;;;8.66;100.00;101786.78;4104436;29;20110;-79
2022/11/02 03:39:07;;;;;;;16.05;3.10;;;9.50;99.90;;;8.55;100.00;101786.75;4108162;28;20038;-79
2022/11/02 03:41:10;;;;;;;19.13;3.50;;;9.40;99.90;;;8.49;100.00;101785.44;4120305;28;20544;-79
2022/11/02 03:43:13;;;;;;;16.60;2.65;;;9.30;99.90;;;8.48;100.00;101786.41;4120495;28;20581;-79
2022/11/02 03:45:27;;;;;;;17.52;3.97;;;9.30;99.90;;;8.55;100.00;101792.84;4104016;29;20078;-79
2022/11/02 03:47:32;;;;;;;15.10;3.50;;;9.30;99.90;;;8.54;100.00;101785.09;4119930;28;20029;-78
2022/11/02 03:49:34;;;;;;;22.27;3.47;;;9.40;99.90;;;8.66;100.00;101790.22;4120178;28;20494;-79
2022/11/02 03:51:39;;;;;;;19.60;4.13;;;9.40;99.90;;;8.78;100.00;101791.91;4119815;28;20023;-79
2022/11/02 03:54:10;;;;;;;20.50;4.55;;;9.50;99.90;;;8.86;100.00;101796.59;4120035;28;20085;-79
2022/11/02 03:56:28;;;;;;;15.23;3.08;;;9.60;99.90;;;8.85;100.00;101792.28;4118569;28;20569;-79
2022/11/02 03:58:29;;;;;;;16.95;2.67;;;9.70;99.90;;;8.94;100.00;101798.63;4119786;28;20039;-79
2022/11/02 04:00:34;;;;;;;22.80;4.28;;;9.70;99.90;;;8.93;100.00;101794.34;4105511;29;20034;-79
2022/11/02 04:02:38;;;;;;;18.20;4.03;;;9.80;99.90;;;8.97;100.00;101799.22;4105599;29;20406;-79
2022/11/02 04:04:50;;;;;;;15.02;3.13;;;9.80;99.90;;;8.94;100.00;101788.09;4105450;29;20034;-79
2022/11/02 04:06:52;;;;;;;21.30;4.50;;;9.80;99.90;;;8.97;100.00;101799.22;4120009;28;20031;-79
2022/11/02 04:08:53;;;;;;;26.13;3.30;;;9.80;99.90;;;8.98;100.00;101798.28;4120272;28;20026;-79
2022/11/02 04:15:33;;;;;;;17.30;3.72;;;9.80;99.90;;;8.94;100.00;101804.72;4105368;29;20054;-79
2022/11/02 04:19:55;;;;;;;13.35;3.40;;;9.70;99.90;;;8.74;100.00;101810.69;4105188;29;20085;-79
2022/11/02 04:26:35;;;;;;;15.30;4.60;;;9.40;99.90;;;8.43;100.00;101806.94;4104157;29;20067;-79
2022/11/02 04:28:36;;;;;;;14.40;3.55;;;9.30;99.90;;;8.35;100.00;101809.31;4104875;29;20110;-79
2022/11/02 04:30:37;;;;;;;14.25;3.17;;;9.20;99.90;;;8.33;100.00;101816.50;4104910;29;20019;-79
2022/11/02 04:35:07;;;;;;;15.75;3.90;;;9.10;99.90;;;8.22;100.00;101805.88;4103994;29;20061;-79
2022/11/02 04:38:39;;;;;;;12.43;3.55;;;9.10;99.90;;;8.21;100.00;101820.81;4103558;29;20039;-79
2022/11/02 04:39:28;;;;;;;10.40;3.10;;;9.00;99.90;;;8.21;100.00;101825.25;4112121;28;20066;-79
2022/11/02 04:41:41;;;;;;;14.88;3.13;;;9.00;99.90;;;8.19;100.00;101827.97;4109340;28;20039;-79
2022/11/02 04:43:43;;;;;;;18.33;3.70;;;9.00;99.90;;;8.15;100.00;101836.22;4105056;29;20490;-79
2022/11/02 04:45:44;;;;;;;15.10;3.00;;;8.90;99.90;;;8.10;100.00;101836.56;4103666;29;20532;-79
2022/11/02 04:47:44;;;;;;;13.70;2.28;;;8.90;99.90;;;8.06;100.00;101843.00;4104810;29;20062;-79
2022/11/02 04:49:45;;;;;;;12.82;2.33;;;8.90;99.90;;;8.00;100.00;101846.09;4104877;29;20496;-79
2022/11/02 04:51:46;;;;;;;15.65;2.38;;;8.90;99.90;;;7.93;100.00;101844.84;4103546;29;20059;-79
2022/11/02 04:53:48;;;;;;;12.48;3.25;;;8.80;99.90;;;7.85;100.00;101844.56;4104834;28;20031;-79
2022/11/02 04:55:49;;;;;;;12.88;2.47;;;8.80;99.90;;;7.85;100.00;101862.97;4087555;29;20431;-79
2022/11/02 04:57:50;;;;;;;12.48;2.40;;;8.70;99.90;;;7.78;100.00;101862.56;4104524;29;20027;-79
2022/11/02 04:59:51;;;;;;;15.05;2.50;;;8.70;99.90;;;7.73;100.00;101854.19;4103197;29;20038;-79
2022/11/02 05:01:52;;;;;;;10.65;2.30;;;8.60;99.90;;;7.68;100.00;101858.06;4104352;29;20487;-79
2022/11/02 05:03:54;;;;;;;20.08;3.80;;;8.60;99.90;;;7.64;100.00;101865.34;4102531;28;20026;-79
2022/11/02 05:05:55;;;;;;;10.40;3.10;;;8.50;99.90;;;7.60;100.00;101861.25;4102973;29;20031;-79
2022/11/02 05:07:56;;;;;;;9.50;3.08;;;8.50;99.90;;;7.55;100.00;101863.38;4103621;29;20074;-79
2022/11/02 05:09:57;;;;;;;10.18;2.60;;;8.40;99.90;;;7.48;100.00;101846.38;4087452;29;20027;-79
2022/11/02 05:11:58;;;;;;;12.52;3.47;;;8.40;99.90;;;7.51;100.00;101864.53;4104637;29;20110;-79
2022/11/02 05:13:58;;;;;;;9.65;1.95;;;8.40;99.90;;;7.50;100.00;101860.22;4103199;29;20086;-79
2022/11/02 05:15:59;;;;;;;17.55;2.60;;;8.40;99.90;;;7.48;100.00;101851.63;4087207;29;20023;-79
2022/11/02 05:18:00;;;;;;;17.05;3.03;;;8.30;99.90;;;7.54;100.00;101855.59;4103288;29;20039;-79
2022/11/02 05:20:02;;;;;;;17.08;2.22;;;8.30;99.90;;;7.53;100.00;101854.75;4104472;29;20589;-79
2022/11/02 05:22:02;;;;;;;11.65;3.17;;;8.40;99.90;;;7.50;100.00;101852.34;4102944;29;20034;-79
2022/11/02 05:24:04;;;;;;;9.73;2.13;;;8.30;99.90;;;7.50;100.00;101859.38;4087033;29;20032;-78
2022/11/02 05:26:10;;;;;;;9.77;2.33;;;8.30;99.90;;;7.53;100.00;101854.75;4087231;29;20448;-79
2022/11/02 05:28:11;;;;;;;16.60;2.38;;;8.40;99.90;;;7.47;100.00;101852.56;4103206;29;20094;-79
2022/11/02 05:30:12;;;;;;;10.77;2.83;;;8.30;99.90;;;7.52;100.00;101863.59;4104040;29;20039;-78
2022/11/02 05:32:13;;;;;;;11.68;2.72;;;8.40;99.90;;;7.47;100.00;101852.56;4102921;29;20122;-79
2022/11/02 05:34:14;;;;;;;16.35;1.92;;;8.30;99.90;;;7.48;100.00;101851.63;4102988;29;20042;-79
2022/11/02 05:36:15;;;;;;;13.30;3.72;;;8.30;99.90;;;7.48;100.00;101851.63;4087005;29;20028;-79
2022/11/02 05:38:16;;;;;;;18.08;2.88;;;8.30;99.90;;;7.49;100.00;101866.44;4103965;29;20024;-79
2022/11/02 05:40:17;;;;;;;11.30;2.22;;;8.30;99.90;;;7.45;100.00;101857.09;4103980;29;20034;-79
2022/11/02 05:42:17;;;;;;;8.32;2.13;;;8.30;99.90;;;7.42;100.00;101852.06;4102994;29;20529;-79
2022/11/02 05:44:18;;;;;;;15.60;3.10;;;8.30;99.90;;;7.43;100.00;101859.00;4086913;29;20023;-79
2022/11/02 05:46:19;;;;;;;10.63;1.80;;;8.30;99.90;;;7.45;100.00;101861.50;4118670;28;20022;-79
2022/11/02 05:48:21;;;;;;;11.98;2.38;;;8.30;99.90;;;7.39;100.00;101849.66;4102830;28;20042;-78
2022/11/02 05:50:22;;;;;;;12.05;2.70;;;8.30;99.90;;;7.45;100.00;101854.47;4118728;28;20686;-79
2022/11/02 05:52:22;;;;;;;15.27;2.38;;;8.30;99.90;;;7.38;100.00;101844.53;4118791;28;20035;-79
2022/11/02 05:54:23;;;;;;;21.48;3.08;;;8.30;99.90;;;7.46;100.00;101864.03;4087044;29;20028;-78
2022/11/02 05:56:24;;;;;;;11.23;2.40;;;8.30;99.90;;;7.47;100.00;101854.34;4118714;28;20081;-79
2022/11/02 05:58:26;;;;;;;16.95;3.22;;;8.20;99.90;;;7.45;100.00;101851.84;4118894;28;20023;-79
2022/11/02 06:00:27;;;;;;;17.70;3.92;;;8.30;99.90;;;7.47;100.00;101854.34;4118618;28;20038;-79
2022/11/02 06:02:28;;;;;;;11.93;2.00;;;8.30;99.90;;;7.49;100.00;101858.56;4103911;29;20447;-79
2022/11/02 06:04:29;;;;;;;11.75;1.98;;;8.30;99.90;;;7.44;100.00;101852.78;4104066;29;20031;-79
2022/11/02 06:06:30;;;;;;;13.63;2.40;;;8.30;99.90;;;7.44;100.00;101850.16;4118590;28;20039;-79
2022/11/02 06:08:36;;;;;;;17.77;2.97;;;8.30;99.90;;;7.42;100.00;101846.81;4102657;29;20066;-79
2022/11/02 06:10:37;;;;;;;15.73;2.83;;;8.30;99.90;;;7.35;100.00;101845.56;4118616;28;20097;-79
2022/11/02 06:12:38;;;;;;;14.75;2.20;;;8.30;99.90;;;7.38;100.00;101847.16;4118553;28;20062;-79
2022/11/02 06:14:39;;;;;;;15.90;2.95;;;8.30;99.90;;;7.33;100.00;101843.97;4103927;28;20510;-79
2022/11/02 06:16:39;;;;;;;12.13;2.30;;;8.20;99.90;;;7.32;100.00;101848.38;4121403;28;20030;-79
2022/11/02 06:18:41;;;;;;;16.80;3.63;;;8.20;99.90;;;7.35;100.00;101839.50;4090009;29;20024;-79
2022/11/02 06:20:41;;;;;;;18.33;2.50;;;8.20;99.90;;;7.36;100.00;101847.22;4105484;29;20122;-79
2022/11/02 06:22:43;;;;;;;22.27;4.05;;;8.20;99.90;;;7.30;100.00;101847.66;4106830;29;20023;-79
2022/11/02 06:24:43;;;;;;;16.88;3.20;;;8.20;99.90;;;7.31;100.00;101845.88;4121782;28;20110;-79
2022/11/02 06:26:45;;;;;;;12.32;3.13;;;8.20;99.90;;;7.31;100.00;101849.34;4105749;29;20027;-78
2022/11/02 06:28:46;;;;;;;15.10;2.35;;;8.20;99.90;;;7.28;100.00;101840.84;4121377;28;20047;-78
2022/11/02 06:30:48;;;;;;;12.85;2.40;;;8.20;99.90;;;7.28;100.00;101844.31;4107154;29;20082;-79
2022/11/02 06:32:51;;;;;;;15.55;2.33;;;8.10;99.90;;;7.29;100.00;101842.53;4105636;29;20031;-79
2022/11/02 06:34:52;;;;;;;19.97;3.57;;;8.10;99.90;;;7.27;100.00;101855.75;4105405;29;20042;-80
2022/11/02 06:36:53;;;;;;;25.25;3.47;;;8.10;99.90;;;7.24;100.00;101854.19;4121183;28;20027;-78
2022/11/02 06:38:54;;;;;;;12.13;2.90;;;8.10;99.90;;;7.21;100.00;101848.31;4106770;29;20534;-79
2022/11/02 06:41:02;;;;;;;10.18;1.67;;;8.10;99.90;;;7.19;100.00;101844.97;4089615;29;20039;-80
2022/11/02 06:43:03;;;;;;;10.45;2.22;;;8.10;99.90;;;7.20;100.00;101846.63;4105597;29;20027;-79
2022/11/02 06:45:05;;;;;;;16.88;2.75;;;8.10;99.90;;;7.22;100.00;101848.22;4106356;29;20031;-80
2022/11/02 06:47:06;;;;;;;17.20;3.92;;;8.10;99.90;;;7.23;100.00;101843.78;4089394;29;20024;-79
2022/11/02 06:49:07;;;;;;;11.98;2.95;;;8.10;99.90;;;7.27;100.00;101855.75;4105200;29;20059;-79
2022/11/02 06:51:08;;;;;;;14.25;3.00;;;8.10;99.90;;;7.27;100.00;101844.41;4106489;29;20031;-80
2022/11/02 06:53:09;;;;;;;17.80;2.40;;;8.10;99.90;;;7.28;100.00;101846.94;4089473;29;20035;-79
2022/11/02 06:55:11;;;;;;;17.00;3.80;;;8.10;99.90;;;7.32;100.00;101848.38;4089585;29;20040;-80
2022/11/02 06:57:12;;;;;;;12.95;2.17;;;8.20;99.90;;;7.30;100.00;101842.41;4105320;29;20038;-80
2022/11/02 06:59:13;;;;;;;10.90;1.98;;;8.10;99.90;;;7.33;100.00;101846.59;4089206;29;20031;-79
2022/11/02 07:01:14;;;;;;;16.05;3.08;;;8.20;99.90;;;7.32;100.00;101845.75;4104961;29;20102;-80
2022/11/02 07:03:15;;;;;;;17.35;2.50;;;8.20;99.90;;;7.33;100.00;101841.34;4105177;29;20036;-79
2022/11/02 07:05:16;;;;;;;14.68;2.97;;;8.20;99.90;;;7.38;100.00;101855.84;4105013;29;20023;-79
2022/11/02 07:07:17;;;;;;;22.08;2.90;;;8.20;99.90;;;7.36;100.00;101852.50;4106378;29;20495;-80
2022/11/02 07:09:18;;;;;;;14.80;2.40;;;8.30;99.90;;;7.39;100.00;101852.28;4089122;29;20039;-80
2022/11/02 07:11:19;;;;;;;17.45;3.60;;;8.30;99.90;;;7.41;100.00;101850.38;4105189;29;20078;-80
2022/11/02 07:13:20;;;;;;;12.10;3.08;;;8.30;99.90;;;7.45;100.00;101851.84;4105138;29;20042;-79
2022/11/02 07:15:23;;;;;;;16.40;3.08;;;8.30;99.90;;;7.45;100.00;101845.75;4106235;29;20093;-79
2022/11/02 07:17:24;;;;;;;11.10;1.87;;;8.30;99.90;;;7.48;100.00;101846.38;4104727;29;20027;-78
2022/11/02 07:19:25;;;;;;;11.05;2.42;;;8.30;99.90;;;7.46;100.00;101834.31;4106175;29;20297;-79
2022/11/02 07:21:26;;;;;;;17.20;3.63;;;8.30;99.90;;;7.47;100.00;101835.97;4104746;29;20087;-78
2022/11/02 07:23:27;;;;;;;13.00;3.08;;;8.30;99.90;;;7.51;100.00;101851.41;4105764;29;20023;-81
2022/11/02 07:25:30;;;;;;;20.55;3.35;;;8.30;99.90;;;7.52;100.00;101845.22;4104792;29;20060;-80
2022/11/02 07:27:36;;;;;;;21.75;4.00;;;8.40;99.90;;;7.57;100.00;101840.47;4111386;28;20042;-80
2022/11/02 07:29:37;;;;;;;19.63;4.35;;;8.40;99.90;;;7.66;100.00;101860.81;4104545;28;20062;-81
2022/11/02 07:31:38;;;;;;;21.10;4.50;;;8.50;99.90;;;7.70;100.00;101849.16;4106181;29;20035;-81
2022/11/02 07:33:38;;;;;;;16.58;3.70;;;8.50;99.90;;;7.76;100.00;101850.50;4104706;29;20023;-81
2022/11/02 07:35:40;;;;;;;27.17;3.72;;;8.60;99.90;;;7.87;100.00;101855.78;4105789;29;20034;-81
2022/11/02 07:37:41;;;;;;;19.90;3.45;;;8.60;99.90;;;7.96;100.00;101856.91;4105827;29;20042;-81
2022/11/02 07:39:42;;;;;;;24.63;4.97;;;8.70;99.90;;;8.02;100.00;101859.09;4105747;29;20035;-81
2022/11/02 07:41:43;;;;;;;20.58;3.88;;;8.80;99.90;;;8.07;100.00;101854.31;4105640;29;20058;-81
2022/11/02 07:43:43;;;;;;;23.50;3.92;;;8.90;99.90;;;8.19;100.00;101871.81;4104729;29;20034;-81
2022/11/02 07:45:44;;;;;;;16.65;2.97;;;8.90;99.90;;;8.24;100.00;101867.09;4088516;29;20023;-81
2022/11/02 07:47:46;;;;;;;25.05;3.78;;;9.00;99.90;;;8.25;100.00;101864.31;4104770;29;20038;-81
2022/11/02 07:49:47;;;;;;;17.20;4.18;;;9.00;99.90;;;8.33;100.00;101869.06;4088802;29;20388;-81
2022/11/02 07:51:48;;;;;;;21.60;4.03;;;9.10;99.90;;;8.36;100.00;101871.47;4104418;29;20058;-81
2022/11/02 07:53:49;;;;;;;22.23;3.60;;;9.10;99.90;;;8.42;100.00;101871.00;4104551;29;20016;-81
2022/11/02 07:55:50;;;;;;;15.05;3.05;;;9.20;99.90;;;8.45;100.00;101868.16;4105791;29;20028;-81
2022/11/02 07:58:03;;;;;;;18.02;3.90;;;9.30;99.90;;;8.51;100.00;101875.56;4104456;29;20023;-81
2022/11/02 08:00:05;;;;;;;18.15;3.70;;;9.30;99.90;;;8.53;100.00;101870.19;4104545;29;20078;-81
2022/11/02 08:02:12;;;;;;;23.50;3.30;;;9.30;99.90;;;8.63;100.00;101871.19;4104293;29;20476;-80
2022/11/02 08:04:13;;;;;;;21.20;3.75;;;9.40;99.90;;;8.67;100.00;101881.34;4104223;29;20411;-81
2022/11/02 08:06:14;;;;;;;13.45;3.25;;;9.50;99.90;;;8.67;100.00;101870.81;4103873;29;20055;-80
2022/11/02 08:08:21;;;;;;;18.63;3.47;;;9.50;99.90;;;8.75;100.00;101871.06;4105677;29;20034;-80
2022/11/02 08:10:22;;;;;;;15.30;3.72;;;9.60;99.90;;;8.82;100.00;101874.91;4088131;29;20027;-80
2022/11/02 08:12:23;;;;;;;19.15;2.80;;;9.60;99.90;;;8.85;100.00;101872.06;4104186;29;20395;-80
2022/11/02 08:14:24;;;;;;;15.77;3.35;;;9.70;99.90;;;8.90;100.00;101872.53;4091723;29;20411;-81
2022/11/02 08:16:25;;;;;;;17.95;3.97;;;9.70;99.90;;;8.96;100.00;101879.13;4104217;29;20090;-81
2022/11/02 08:18:28;;;;;;;17.48;4.22;;;9.80;99.90;;;8.97;100.00;101872.91;4104139;29;20508;-81
2022/11/02 08:20:29;;;;;;;16.80;3.03;;;9.80;99.90;;;9.03;100.00;101877.69;4103668;29;20098;-81
2022/11/02 08:22:30;;;;;;;10.07;2.45;;;9.80;99.90;;;9.06;100.00;101871.34;4072382;29;20124;-81
2022/11/02 08:24:31;;;;;;;15.05;3.40;;;9.90;99.90;;;9.15;100.00;101881.16;4088142;29;20024;-81
2022/11/02 08:26:32;;;;;;;20.33;4.10;;;9.90;99.90;;;9.16;100.00;101872.34;4105120;29;20031;-81
2022/11/02 08:28:38;;;;;;;14.48;4.20;;;10.00;99.90;;;9.10;100.00;101851.75;4103818;29;20491;-80
2022/11/02 08:30:40;;;;;;;20.25;4.32;;;10.00;99.90;;;9.22;100.00;101861.31;4105166;29;20118;-80
2022/11/02 08:32:41;;;;;;;18.67;3.30;;;10.00;99.90;;;9.27;100.00;101867.91;4103936;29;20127;-80
2022/11/02 08:34:41;;;;;;;23.95;3.90;;;10.10;99.90;;;9.32;100.00;101868.38;4103949;29;20039;-80
2022/11/02 08:36:42;;;;;;;18.08;3.72;;;10.10;99.90;;;9.36;100.00;101874.22;4103547;29;20032;-81
2022/11/02 08:38:43;;;;;;;15.32;3.85;;;10.20;99.90;;;9.37;100.00;101860.13;4104591;28;20049;-80
2022/11/02 08:40:44;;;;;;;19.13;3.95;;;10.20;99.90;;;9.41;100.00;101867.66;4103801;29;20534;-80
2022/11/02 08:42:45;;;;;;;21.45;3.28;;;10.30;99.90;;;9.40;100.00;101854.63;4103512;29;20030;-80
2022/11/02 08:44:46;;;;;;;23.00;3.63;;;10.30;99.90;;;9.49;100.00;101860.94;4103574;29;20038;-80
2022/11/02 08:46:47;;;;;;;15.85;3.53;;;10.30;99.90;;;9.54;100.00;101862.25;4103556;29;20158;-80
2022/11/02 08:48:48;;;;;;;28.42;5.07;;;10.40;99.90;;;9.58;100.00;101852.31;4105017;29;20031;-81
2022/11/02 08:50:49;;;;;;;23.48;3.90;;;10.40;99.90;;;9.66;100.00;101858.63;4103447;29;20154;-81